sensor_id;sensor_type;location;lat;lon;timestamp;pressure;altitude;pressure_sealevel;temperature;humidity
60228;BME280;46091;46.512;6.626;2023-01-10T07:11:26;97665.38;;;8.02;65.04
60228;BME280;46091;46.512;6.626;2023-01-10T07:13:29;97658.63;;;8.34;64.76
60228;BME280;46091;46.512;6.626;2023-01-10T07:15:32;97672.75;;;8.59;64.43
60228;BME280;46091;46.512;6.626;2023-01-10T07:17:36;97676.63;;;8.81;64.08
60228;BME280;46091;46.512;6.626;2023-01-10T07:19:40;97687.41;;;8.95;63.57
60228;BME280;46091;46.512;6.626;2023-01-10T07:21:44;97689.72;;;9.07;63.31
60228;BME280;46091;46.512;6.626;2023-01-10T07:23:48;97685.59;;;9.12;63.35
60228;BME280;46091;46.512;6.626;2023-01-10T07:25:51;97688.25;;;9.20;63.37
60228;BME280;46091;46.512;6.626;2023-01-10T07:27:56;97699.66;;;9.29;63.28
60228;BME280;46091;46.512;6.626;2023-01-10T07:29:59;97700.81;;;9.34;63.01
60228;BME280;46091;46.512;6.626;2023-01-10T07:32:02;97706.28;;;9.41;63.12
60228;BME280;46091;46.512;6.626;2023-01-10T07:34:07;97705.94;;;9.44;62.95
60228;BME280;46091;46.512;6.626;2023-01-10T07:36:10;97704.44;;;9.50;62.73
60228;BME280;46091;46.512;6.626;2023-01-10T07:38:14;97704.78;;;9.55;62.57
60228;BME280;46091;46.512;6.626;2023-01-10T07:40:18;97707.91;;;9.58;62.41
60228;BME280;46091;46.512;6.626;2023-01-10T07:42:21;97720.94;;;9.60;62.51
60228;BME280;46091;46.512;6.626;2023-01-10T07:44:25;97712.38;;;9.58;62.44
60228;BME280;46091;46.512;6.626;2023-01-10T07:46:28;97716.31;;;9.62;62.38
60228;BME280;46091;46.512;6.626;2023-01-10T07:48:31;97727.56;;;9.64;62.38
60228;BME280;46091;46.512;6.626;2023-01-10T07:50:35;97733.69;;;9.65;62.34
60228;BME280;46091;46.512;6.626;2023-01-10T07:52:39;97729.53;;;9.62;62.20
60228;BME280;46091;46.512;6.626;2023-01-10T07:54:42;97735.78;;;9.61;61.79
60228;BME280;46091;46.512;6.626;2023-01-10T07:56:45;97736.31;;;9.65;61.78
60228;BME280;46091;46.512;6.626;2023-01-10T07:58:49;97744.06;;;9.66;61.85
60228;BME280;46091;46.512;6.626;2023-01-10T08:00:56;97745.56;;;9.69;61.67
60228;BME280;46091;46.512;6.626;2023-01-10T08:02:59;97744.72;;;9.68;61.58
60228;BME280;46091;46.512;6.626;2023-01-10T08:05:02;97745.88;;;9.66;61.43
60228;BME280;46091;46.512;6.626;2023-01-10T08:07:06;97744.72;;;9.68;61.64
60228;BME280;46091;46.512;6.626;2023-01-10T08:09:09;97747.03;;;9.71;61.19
60228;BME280;46091;46.512;6.626;2023-01-10T08:11:12;97756.59;;;9.72;61.47
60228;BME280;46091;46.512;6.626;2023-01-10T08:13:16;97754.66;;;9.74;61.08
60228;BME280;46091;46.512;6.626;2023-01-10T08:15:20;97758.75;;;9.77;60.91
60228;BME280;46091;46.512;6.626;2023-01-10T08:17:25;97759.94;;;9.74;60.99
60228;BME280;46091;46.512;6.626;2023-01-10T08:19:28;97758.25;;;9.73;61.02
60228;BME280;46091;46.512;6.626;2023-01-10T08:21:31;97766.69;;;9.77;61.20
60228;BME280;46091;46.512;6.626;2023-01-10T08:23:34;97764.03;;;9.77;60.83
60228;BME280;46091;46.512;6.626;2023-01-10T08:25:37;97770.81;;;9.79;60.88
60228;BME280;46091;46.512;6.626;2023-01-10T08:27:41;97773.63;;;9.78;60.55
60228;BME280;46091;46.512;6.626;2023-01-10T08:29:44;97776.59;;;9.75;60.70
60228;BME280;46091;46.512;6.626;2023-01-10T08:31:47;97784.50;;;9.75;60.40
60228;BME280;46091;46.512;6.626;2023-01-10T08:33:52;97784.16;;;9.70;60.52
60228;BME280;46091;46.512;6.626;2023-01-10T08:35:55;97790.94;;;9.72;60.58
60228;BME280;46091;46.512;6.626;2023-01-10T08:37:59;97789.28;;;9.71;60.16
60228;BME280;46091;46.512;6.626;2023-01-10T08:40:03;97791.25;;;9.69;60.19
60228;BME280;46091;46.512;6.626;2023-01-10T08:42:07;97784.16;;;9.70;59.74
60228;BME280;46091;46.512;6.626;2023-01-10T08:44:10;97789.28;;;9.63;60.15
60228;BME280;46091;46.512;6.626;2023-01-10T08:46:16;97781.34;;;9.55;60.11
60228;BME280;46091;46.512;6.626;2023-01-10T08:48:19;97783.00;;;9.56;59.93
60228;BME280;46091;46.512;6.626;2023-01-10T08:50:24;97785.47;;;9.57;59.90
60228;BME280;46091;46.512;6.626;2023-01-10T08:52:27;97773.75;;;9.60;60.05
60228;BME280;46091;46.512;6.626;2023-01-10T08:54:31;97782.31;;;9.62;60.36
60228;BME280;46091;46.512;6.626;2023-01-10T08:56:34;97777.56;;;9.66;60.08
60228;BME280;46091;46.512;6.626;2023-01-10T08:58:40;97788.63;;;9.69;59.73
60228;BME280;46091;46.512;6.626;2023-01-10T09:00:44;97773.78;;;9.68;59.65
60228;BME280;46091;46.512;6.626;2023-01-10T09:02:47;97787.13;;;9.67;59.85
60228;BME280;46091;46.512;6.626;2023-01-10T09:04:50;97790.13;;;9.63;60.15
60228;BME280;46091;46.512;6.626;2023-01-10T09:06:55;97792.88;;;9.62;59.76
60228;BME280;46091;46.512;6.626;2023-01-10T09:08:58;97799.84;;;9.63;59.65
60228;BME280;46091;46.512;6.626;2023-01-10T09:11:01;97801.50;;;9.64;59.70
60228;BME280;46091;46.512;6.626;2023-01-10T09:13:05;97796.22;;;9.64;59.63
60228;BME280;46091;46.512;6.626;2023-01-10T09:15:09;97804.28;;;9.62;59.64
60228;BME280;46091;46.512;6.626;2023-01-10T09:17:13;97806.59;;;9.66;59.62
60228;BME280;46091;46.512;6.626;2023-01-10T09:19:16;97810.91;;;9.67;59.59
60228;BME280;46091;46.512;6.626;2023-01-10T09:21:19;97807.44;;;9.66;59.47
60228;BME280;46091;46.512;6.626;2023-01-10T09:23:24;97806.44;;;9.67;59.29
60228;BME280;46091;46.512;6.626;2023-01-10T09:25:27;97805.28;;;9.70;59.26
60228;BME280;46091;46.512;6.626;2023-01-10T09:27:32;97804.78;;;9.66;59.04
60228;BME280;46091;46.512;6.626;2023-01-10T09:29:35;97805.78;;;9.65;59.08
60228;BME280;46091;46.512;6.626;2023-01-10T09:31:39;97803.16;;;9.65;59.22
60228;BME280;46091;46.512;6.626;2023-01-10T09:33:42;97812.88;;;9.65;59.16
60228;BME280;46091;46.512;6.626;2023-01-10T09:35:48;97813.03;;;9.63;58.93
60228;BME280;46091;46.512;6.626;2023-01-10T09:37:53;97813.03;;;9.63;59.22
60228;BME280;46091;46.512;6.626;2023-01-10T09:39:58;97814.00;;;9.62;58.94
60228;BME280;46091;46.512;6.626;2023-01-10T09:42:13;97821.78;;;9.63;59.12
60228;BME280;46091;46.512;6.626;2023-01-10T09:44:31;97814.84;;;9.62;58.76
60228;BME280;46091;46.512;6.626;2023-01-10T09:46:45;97814.00;;;9.62;58.71
60228;BME280;46091;46.512;6.626;2023-01-10T09:48:56;97815.34;;;9.66;58.83
60228;BME280;46091;46.512;6.626;2023-01-10T09:51:12;97827.06;;;9.63;58.75
60228;BME280;46091;46.512;6.626;2023-01-10T09:53:21;97829.88;;;9.70;58.64
60228;BME280;46091;46.512;6.626;2023-01-10T09:55:29;97832.19;;;9.73;58.54
60228;BME280;46091;46.512;6.626;2023-01-10T09:57:33;97827.72;;;9.74;58.69
60228;BME280;46091;46.512;6.626;2023-01-10T09:59:39;97826.06;;;9.73;58.66
60228;BME280;46091;46.512;6.626;2023-01-10T10:01:44;97831.06;;;9.76;58.23
60228;BME280;46091;46.512;6.626;2023-01-10T10:03:53;97828.25;;;9.77;58.45
60228;BME280;46091;46.512;6.626;2023-01-10T10:06:01;97844.09;;;9.77;58.27
60228;BME280;46091;46.512;6.626;2023-01-10T10:08:17;97841.94;;;9.81;58.39
60228;BME280;46091;46.512;6.626;2023-01-10T10:10:23;97839.78;;;9.84;58.24
60228;BME280;46091;46.512;6.626;2023-01-10T10:12:35;97848.88;;;9.82;58.06
60228;BME280;46091;46.512;6.626;2023-01-10T10:14:50;97848.72;;;9.83;58.12
60228;BME280;46091;46.512;6.626;2023-01-10T10:17:07;97841.59;;;9.84;57.92
60228;BME280;46091;46.512;6.626;2023-01-10T10:19:19;97840.47;;;9.86;57.72
60228;BME280;46091;46.512;6.626;2023-01-10T10:21:31;97845.59;;;9.88;58.09
60228;BME280;46091;46.512;6.626;2023-01-10T10:23:47;97852.69;;;9.87;57.93
60228;BME280;46091;46.512;6.626;2023-01-10T10:26:00;97843.94;;;9.87;57.79
60228;BME280;46091;46.512;6.626;2023-01-10T10:28:20;97850.22;;;9.94;57.69
60228;BME280;46091;46.512;6.626;2023-01-10T10:30:43;97848.09;;;9.98;57.58
60228;BME280;46091;46.512;6.626;2023-01-10T10:33:02;97858.78;;;9.96;57.67
60228;BME280;46091;46.512;6.626;2023-01-10T10:35:12;97858.66;;;9.98;57.20
60228;BME280;46091;46.512;6.626;2023-01-10T10:37:20;97852.84;;;9.94;57.55
60228;BME280;46091;46.512;6.626;2023-01-10T10:39:31;97850.72;;;9.89;57.39
60228;BME280;46091;46.512;6.626;2023-01-10T10:41:38;97853.34;;;9.89;57.39
60228;BME280;46091;46.512;6.626;2023-01-10T10:43:45;97854.66;;;9.93;57.37
60228;BME280;46091;46.512;6.626;2023-01-10T10:45:51;97850.03;;;9.96;57.53
60228;BME280;46091;46.512;6.626;2023-01-10T10:48:00;97852.38;;;9.99;57.51
60228;BME280;46091;46.512;6.626;2023-01-10T10:50:17;97843.47;;;10.00;57.33
60228;BME280;46091;46.512;6.626;2023-01-10T10:52:24;97850.72;;;9.98;57.07
60228;BME280;46091;46.512;6.626;2023-01-10T10:54:35;97845.75;;;9.95;57.07
60228;BME280;46091;46.512;6.626;2023-01-10T10:56:38;97849.75;;;9.99;56.79
60228;BME280;46091;46.512;6.626;2023-01-10T10:58:47;97850.56;;;9.99;57.33
60228;BME280;46091;46.512;6.626;2023-01-10T11:00:53;97850.88;;;10.04;57.01
60228;BME280;46091;46.512;6.626;2023-01-10T11:03:02;97844.78;;;10.04;56.93
60228;BME280;46091;46.512;6.626;2023-01-10T11:05:15;97852.38;;;10.07;56.75
60228;BME280;46091;46.512;6.626;2023-01-10T11:07:21;97846.78;;;10.10;56.87
60228;BME280;46091;46.512;6.626;2023-01-10T11:09:25;97842.50;;;10.09;56.59
60228;BME280;46091;46.512;6.626;2023-01-10T11:11:33;97850.25;;;10.10;56.68
60228;BME280;46091;46.512;6.626;2023-01-10T11:13:45;97841.16;;;10.13;56.58
60228;BME280;46091;46.512;6.626;2023-01-10T11:15:49;97832.88;;;10.16;56.29
60228;BME280;46091;46.512;6.626;2023-01-10T11:18:03;97833.41;;;10.19;56.29
60228;BME280;46091;46.512;6.626;2023-01-10T11:20:14;97829.91;;;10.19;56.72
60228;BME280;46091;46.512;6.626;2023-01-10T11:22:17;97825.78;;;10.16;56.58
60228;BME280;46091;46.512;6.626;2023-01-10T11:24:29;97825.63;;;10.18;56.31
60228;BME280;46091;46.512;6.626;2023-01-10T11:26:35;97819.88;;;10.23;56.27
60228;BME280;46091;46.512;6.626;2023-01-10T11:28:41;97822.03;;;10.27;56.40
60228;BME280;46091;46.512;6.626;2023-01-10T11:30:49;97814.59;;;10.23;56.05
60228;BME280;46091;46.512;6.626;2023-01-10T11:32:54;97806.97;;;10.19;56.06
60228;BME280;46091;46.512;6.626;2023-01-10T11:35:00;97808.50;;;10.22;56.11
60228;BME280;46091;46.512;6.626;2023-01-10T11:37:17;97803.34;;;10.20;56.18
60228;BME280;46091;46.512;6.626;2023-01-10T11:39:20;97809.47;;;10.21;56.32
60228;BME280;46091;46.512;6.626;2023-01-10T11:41:25;97800.56;;;10.22;56.16
60228;BME280;46091;46.512;6.626;2023-01-10T11:43:33;97795.94;;;10.24;56.08
60228;BME280;46091;46.512;6.626;2023-01-10T11:45:36;97793.78;;;10.28;55.79
60228;BME280;46091;46.512;6.626;2023-01-10T11:47:44;97789.81;;;10.24;55.85
60228;BME280;46091;46.512;6.626;2023-01-10T11:49:49;97782.88;;;10.23;56.02
60228;BME280;46091;46.512;6.626;2023-01-10T11:51:56;97778.09;;;10.26;55.74
60228;BME280;46091;46.512;6.626;2023-01-10T11:54:02;97772.97;;;10.25;55.72
60228;BME280;46091;46.512;6.626;2023-01-10T11:56:09;97770.00;;;10.28;55.87
60228;BME280;46091;46.512;6.626;2023-01-10T11:58:13;97766.34;;;10.29;55.61
60228;BME280;46091;46.512;6.626;2023-01-10T12:00:17;97756.47;;;10.31;55.61
60228;BME280;46091;46.512;6.626;2023-01-10T12:02:22;97755.59;;;10.30;55.95
60228;BME280;46091;46.512;6.626;2023-01-10T12:04:31;97758.25;;;10.30;55.51
60228;BME280;46091;46.512;6.626;2023-01-10T12:06:42;97747.84;;;10.29;55.92
60228;BME280;46091;46.512;6.626;2023-01-10T12:08:46;97741.09;;;10.26;55.56
60228;BME280;46091;46.512;6.626;2023-01-10T12:10:57;97732.81;;;10.29;55.58
60228;BME280;46091;46.512;6.626;2023-01-10T12:13:13;97731.34;;;10.35;55.14
60228;BME280;46091;46.512;6.626;2023-01-10T12:15:22;97723.22;;;10.36;55.31
60228;BME280;46091;46.512;6.626;2023-01-10T12:17:29;97724.88;;;10.37;55.32
60228;BME280;46091;46.512;6.626;2023-01-10T12:19:34;97726.88;;;10.35;55.12
60228;BME280;46091;46.512;6.626;2023-01-10T12:21:38;97714.13;;;10.39;55.19
60228;BME280;46091;46.512;6.626;2023-01-10T12:23:44;97723.72;;;10.40;55.23
60228;BME280;46091;46.512;6.626;2023-01-10T12:25:50;97704.72;;;10.44;55.00
60228;BME280;46091;46.512;6.626;2023-01-10T12:28:16;97711.47;;;10.47;54.98
60228;BME280;46091;46.512;6.626;2023-01-10T12:30:28;97705.66;;;10.52;54.78
60228;BME280;46091;46.512;6.626;2023-01-10T12:32:41;97698.09;;;10.48;54.71
60228;BME280;46091;46.512;6.626;2023-01-10T12:34:49;97697.91;;;10.50;54.69
60228;BME280;46091;46.512;6.626;2023-01-10T12:36:59;97703.19;;;10.50;54.46
60228;BME280;46091;46.512;6.626;2023-01-10T12:39:13;97703.38;;;10.48;54.46
60228;BME280;46091;46.512;6.626;2023-01-10T12:41:22;97691.31;;;10.46;54.62
60228;BME280;46091;46.512;6.626;2023-01-10T12:43:44;97689.69;;;10.45;54.69
60228;BME280;46091;46.512;6.626;2023-01-10T12:46:11;97675.63;;;10.44;54.39
60228;BME280;46091;46.512;6.626;2023-01-10T12:48:42;97673.63;;;10.46;54.28
60228;BME280;46091;46.512;6.626;2023-01-10T12:50:55;97668.53;;;10.45;54.03
60228;BME280;46091;46.512;6.626;2023-01-10T12:53:09;97669.69;;;10.42;54.16
60228;BME280;46091;46.512;6.626;2023-01-10T12:55:13;97664.72;;;10.39;54.11
60228;BME280;46091;46.512;6.626;2023-01-10T12:57:24;97661.09;;;10.40;54.33
60228;BME280;46091;46.512;6.626;2023-01-10T12:59:31;97653.00;;;10.42;54.00
60228;BME280;46091;46.512;6.626;2023-01-10T13:01:40;97648.19;;;10.45;54.06
60228;BME280;46091;46.512;6.626;2023-01-10T13:03:45;97641.75;;;10.48;53.75
60228;BME280;46091;46.512;6.626;2023-01-10T13:05:53;97643.91;;;10.44;53.99
60228;BME280;46091;46.512;6.626;2023-01-10T13:08:02;97648.19;;;10.45;53.91
60228;BME280;46091;46.512;6.626;2023-01-10T13:10:09;97649.19;;;10.44;54.23
60228;BME280;46091;46.512;6.626;2023-01-10T13:12:21;97645.22;;;10.48;53.81
60228;BME280;46091;46.512;6.626;2023-01-10T13:14:29;97642.88;;;10.54;53.73
60228;BME280;46091;46.512;6.626;2023-01-10T13:16:41;97630.97;;;10.58;53.86
60228;BME280;46091;46.512;6.626;2023-01-10T13:18:59;97625.31;;;10.61;53.75
60228;BME280;46091;46.512;6.626;2023-01-10T13:21:06;97621.69;;;10.62;53.55
60228;BME280;46091;46.512;6.626;2023-01-10T13:23:27;97614.91;;;10.59;53.72
60228;BME280;46091;46.512;6.626;2023-01-10T13:25:33;97618.84;;;10.63;53.61
60228;BME280;46091;46.512;6.626;2023-01-10T13:27:41;97612.41;;;10.66;53.28
60228;BME280;46091;46.512;6.626;2023-01-10T13:29:45;97622.19;;;10.65;53.63
60228;BME280;46091;46.512;6.626;2023-01-10T13:31:52;97619.69;;;10.64;53.52
60228;BME280;46091;46.512;6.626;2023-01-10T13:34:00;97620.84;;;10.61;53.43
60228;BME280;46091;46.512;6.626;2023-01-10T13:36:10;97619.75;;;10.56;53.25
60228;BME280;46091;46.512;6.626;2023-01-10T13:38:17;97609.34;;;10.54;53.54
60228;BME280;46091;46.512;6.626;2023-01-10T13:40:23;97615.09;;;10.58;53.55
60228;BME280;46091;46.512;6.626;2023-01-10T13:42:31;97606.53;;;10.56;53.32
60228;BME280;46091;46.512;6.626;2023-01-10T13:45:14;97605.53;;;10.57;53.39
60228;BME280;46091;46.512;6.626;2023-01-10T13:48:00;97595.31;;;10.54;53.36
60228;BME280;46091;46.512;6.626;2023-01-10T13:52:49;97592.34;;;10.48;52.95
60228;BME280;46091;46.512;6.626;2023-01-10T13:54:55;97591.81;;;10.53;53.00
60228;BME280;46091;46.512;6.626;2023-01-10T13:56:59;97585.19;;;10.57;53.10
60228;BME280;46091;46.512;6.626;2023-01-10T13:59:04;97595.59;;;10.59;52.74
60228;BME280;46091;46.512;6.626;2023-01-10T14:01:26;97597.59;;;10.57;52.96
60228;BME280;46091;46.512;6.626;2023-01-10T14:03:50;97602.06;;;10.56;52.93
60228;BME280;46091;46.512;6.626;2023-01-10T14:05:54;97607.53;;;10.55;52.98
60228;BME280;46091;46.512;6.626;2023-01-10T14:08:00;97600.22;;;10.57;52.71
60228;BME280;46091;46.512;6.626;2023-01-10T14:10:05;97593.59;;;10.61;52.61
60228;BME280;46091;46.512;6.626;2023-01-10T14:12:17;97603.00;;;10.63;52.86
60228;BME280;46091;46.512;6.626;2023-01-10T14:14:23;97593.22;;;10.64;52.68
60228;BME280;46091;46.512;6.626;2023-01-10T14:16:33;97594.91;;;10.65;52.41
60228;BME280;46091;46.512;6.626;2023-01-10T14:18:38;97590.78;;;10.62;52.50
60228;BME280;46091;46.512;6.626;2023-01-10T14:20:43;97590.13;;;10.60;52.35
60228;BME280;46091;46.512;6.626;2023-01-10T14:23:00;97594.41;;;10.61;52.38
60228;BME280;46091;46.512;6.626;2023-01-10T14:25:16;97588.31;;;10.61;52.67
60228;BME280;46091;46.512;6.626;2023-01-10T14:27:20;97593.22;;;10.64;52.40
60228;BME280;46091;46.512;6.626;2023-01-10T14:29:26;97590.94;;;10.61;52.30
60228;BME280;46091;46.512;6.626;2023-01-10T14:31:32;97583.19;;;10.59;52.35
60228;BME280;46091;46.512;6.626;2023-01-10T14:33:42;97586.84;;;10.58;52.62
60228;BME280;46091;46.512;6.626;2023-01-10T14:35:46;97587.00;;;10.57;52.54
60228;BME280;46091;46.512;6.626;2023-01-10T14:37:55;97583.53;;;10.56;52.09
60228;BME280;46091;46.512;6.626;2023-01-10T14:39:59;97580.25;;;10.54;52.37
60228;BME280;46091;46.512;6.626;2023-01-10T14:42:06;97584.88;;;10.52;52.49
60228;BME280;46091;46.512;6.626;2023-01-10T14:44:14;97585.22;;;10.49;52.65
60228;BME280;46091;46.512;6.626;2023-01-10T14:46:21;97587.69;;;10.50;52.11
60228;BME280;46091;46.512;6.626;2023-01-10T14:48:28;97585.69;;;10.53;52.41
60228;BME280;46091;46.512;6.626;2023-01-10T14:50:31;97594.63;;;10.52;52.06
60228;BME280;46091;46.512;6.626;2023-01-10T14:52:35;97600.59;;;10.54;52.12
60228;BME280;46091;46.512;6.626;2023-01-10T14:54:39;97598.91;;;10.53;52.17
60228;BME280;46091;46.512;6.626;2023-01-10T14:56:45;97598.28;;;10.50;52.21
60228;BME280;46091;46.512;6.626;2023-01-10T14:58:49;97594.63;;;10.52;52.11
60228;BME280;46091;46.512;6.626;2023-01-10T15:00:53;97600.72;;;10.52;52.05
60228;BME280;46091;46.512;6.626;2023-01-10T15:02:58;97595.63;;;10.50;52.25
60228;BME280;46091;46.512;6.626;2023-01-10T15:05:07;97605.38;;;10.50;52.00
60228;BME280;46091;46.512;6.626;2023-01-10T15:07:14;97603.56;;;10.50;52.09
60228;BME280;46091;46.512;6.626;2023-01-10T15:09:17;97600.91;;;10.50;52.08
60228;BME280;46091;46.512;6.626;2023-01-10T15:11:20;97607.66;;;10.53;52.05
60228;BME280;46091;46.512;6.626;2023-01-10T15:13:26;97606.03;;;10.52;51.91
60228;BME280;46091;46.512;6.626;2023-01-10T15:15:34;97615.78;;;10.52;52.17
60228;BME280;46091;46.512;6.626;2023-01-10T15:17:38;97607.03;;;10.51;52.06
60228;BME280;46091;46.512;6.626;2023-01-10T15:19:43;97608.84;;;10.50;51.94
60228;BME280;46091;46.512;6.626;2023-01-10T15:21:47;97607.19;;;10.49;51.99
60228;BME280;46091;46.512;6.626;2023-01-10T15:23:50;97600.09;;;10.50;51.74
60228;BME280;46091;46.512;6.626;2023-01-10T15:25:55;97596.81;;;10.48;51.71
60228;BME280;46091;46.512;6.626;2023-01-10T15:28:00;97602.44;;;10.45;51.94
60228;BME280;46091;46.512;6.626;2023-01-10T15:30:08;97603.63;;;10.42;51.92
60228;BME280;46091;46.512;6.626;2023-01-10T15:32:20;97607.72;;;10.45;51.90
60228;BME280;46091;46.512;6.626;2023-01-10T15:34:26;97605.56;;;10.48;51.79
60228;BME280;46091;46.512;6.626;2023-01-10T15:36:31;97614.13;;;10.50;51.68
60228;BME280;46091;46.512;6.626;2023-01-10T15:38:37;97611.31;;;10.52;51.73
60228;BME280;46091;46.512;6.626;2023-01-10T15:40:43;97608.03;;;10.50;51.66
60228;BME280;46091;46.512;6.626;2023-01-10T15:42:47;97607.38;;;10.48;51.86
60228;BME280;46091;46.512;6.626;2023-01-10T15:45:21;97609.19;;;10.47;51.68
60228;BME280;46091;46.512;6.626;2023-01-10T15:47:34;97599.63;;;10.46;51.78
60228;BME280;46091;46.512;6.626;2023-01-10T15:49:38;97599.44;;;10.48;51.41
60228;BME280;46091;46.512;6.626;2023-01-10T15:51:46;97599.81;;;10.45;51.81
60228;BME280;46091;46.512;6.626;2023-01-10T15:53:57;97599.97;;;10.43;51.45
60228;BME280;46091;46.512;6.626;2023-01-10T15:56:09;97597.34;;;10.43;51.46
60228;BME280;46091;46.512;6.626;2023-01-10T15:58:18;97597.34;;;10.43;51.63
60228;BME280;46091;46.512;6.626;2023-01-10T16:00:26;97603.91;;;10.47;51.33
60228;BME280;46091;46.512;6.626;2023-01-10T16:02:31;97594.16;;;10.48;51.59
60228;BME280;46091;46.512;6.626;2023-01-10T16:04:35;97603.91;;;10.47;51.69
60228;BME280;46091;46.512;6.626;2023-01-10T16:06:38;97602.25;;;10.46;51.75
60228;BME280;46091;46.512;6.626;2023-01-10T16:08:47;97598.63;;;10.47;51.55
60228;BME280;46091;46.512;6.626;2023-01-10T16:10:55;97588.03;;;10.47;51.66
60228;BME280;46091;46.512;6.626;2023-01-10T16:13:09;97592.50;;;10.47;51.52
60228;BME280;46091;46.512;6.626;2023-01-10T16:15:36;97601.44;;;10.46;51.24
60228;BME280;46091;46.512;6.626;2023-01-10T16:17:39;97593.72;;;10.36;51.53
60228;BME280;46091;46.512;6.626;2023-01-10T16:19:42;97589.44;;;10.35;51.55
60228;BME280;46091;46.512;6.626;2023-01-10T16:21:48;97588.44;;;10.36;51.59
60228;BME280;46091;46.512;6.626;2023-01-10T16:23:52;97582.78;;;10.39;51.39
60228;BME280;46091;46.512;6.626;2023-01-10T16:25:57;97580.97;;;10.40;51.47
60228;BME280;46091;46.512;6.626;2023-01-10T16:28:01;97587.56;;;10.44;51.54
60228;BME280;46091;46.512;6.626;2023-01-10T16:30:05;97587.41;;;10.45;51.40
60228;BME280;46091;46.512;6.626;2023-01-10T16:32:13;97590.03;;;10.45;51.55
60228;BME280;46091;46.512;6.626;2023-01-10T16:34:16;97585.75;;;10.44;51.45
60228;BME280;46091;46.512;6.626;2023-01-10T16:36:20;97585.88;;;10.51;51.33
60228;BME280;46091;46.512;6.626;2023-01-10T16:38:25;97586.88;;;10.50;51.38
60228;BME280;46091;46.512;6.626;2023-01-10T16:40:33;97586.06;;;10.49;51.54
60228;BME280;46091;46.512;6.626;2023-01-10T16:42:38;97580.59;;;10.51;51.35
60228;BME280;46091;46.512;6.626;2023-01-10T16:44:59;97588.34;;;10.53;51.40
60228;BME280;46091;46.512;6.626;2023-01-10T16:47:03;97586.50;;;10.53;51.08
60228;BME280;46091;46.512;6.626;2023-01-10T16:49:09;97590.97;;;10.53;51.33
60228;BME280;46091;46.512;6.626;2023-01-10T16:51:17;97588.19;;;10.54;51.41
60228;BME280;46091;46.512;6.626;2023-01-10T16:53:20;97592.31;;;10.57;51.48
60228;BME280;46091;46.512;6.626;2023-01-10T16:55:27;97594.94;;;10.57;51.35
60228;BME280;46091;46.512;6.626;2023-01-10T16:57:33;97593.94;;;10.58;51.14
60228;BME280;46091;46.512;6.626;2023-01-10T16:59:37;97589.47;;;10.58;51.22
60228;BME280;46091;46.512;6.626;2023-01-10T17:01:42;97593.78;;;10.59;50.94
60228;BME280;46091;46.512;6.626;2023-01-10T17:03:47;97592.94;;;10.59;50.93
60228;BME280;46091;46.512;6.626;2023-01-10T17:05:51;97588.66;;;10.58;51.39
60228;BME280;46091;46.512;6.626;2023-01-10T17:07:54;97595.78;;;10.57;51.41
60228;BME280;46091;46.512;6.626;2023-01-10T17:09:56;97596.59;;;10.58;51.38
60228;BME280;46091;46.512;6.626;2023-01-10T17:12:03;97595.94;;;10.56;51.32
60228;BME280;46091;46.512;6.626;2023-01-10T17:14:08;97596.59;;;10.58;51.04
60228;BME280;46091;46.512;6.626;2023-01-10T17:16:13;97592.31;;;10.57;51.23
60228;BME280;46091;46.512;6.626;2023-01-10T17:18:20;97597.22;;;10.60;51.31
60228;BME280;46091;46.512;6.626;2023-01-10T17:20:25;97596.88;;;10.63;51.21
60228;BME280;46091;46.512;6.626;2023-01-10T17:22:29;97604.00;;;10.62;51.38
60228;BME280;46091;46.512;6.626;2023-01-10T17:24:32;97604.16;;;10.61;51.03
60228;BME280;46091;46.512;6.626;2023-01-10T17:26:35;97613.09;;;10.60;51.27
60228;BME280;46091;46.512;6.626;2023-01-10T17:28:38;97613.09;;;10.60;50.95
60228;BME280;46091;46.512;6.626;2023-01-10T17:30:42;97612.75;;;10.63;51.55
60228;BME280;46091;46.512;6.626;2023-01-10T17:32:45;97610.78;;;10.65;51.47
60228;BME280;46091;46.512;6.626;2023-01-10T17:34:47;97614.38;;;10.64;51.54
60228;BME280;46091;46.512;6.626;2023-01-10T17:36:51;97611.75;;;10.64;51.05
60228;BME280;46091;46.512;6.626;2023-01-10T17:38:55;97612.56;;;10.64;51.45
60228;BME280;46091;46.512;6.626;2023-01-10T17:40:59;97616.06;;;10.65;51.32
60228;BME280;46091;46.512;6.626;2023-01-10T17:43:04;97611.75;;;10.64;51.60
60228;BME280;46091;46.512;6.626;2023-01-10T17:45:07;97616.22;;;10.63;51.28
60228;BME280;46091;46.512;6.626;2023-01-10T17:47:10;97622.50;;;10.62;51.44
60228;BME280;46091;46.512;6.626;2023-01-10T17:49:13;97615.56;;;10.61;51.54
60228;BME280;46091;46.512;6.626;2023-01-10T17:51:16;97618.03;;;10.63;51.63
60228;BME280;46091;46.512;6.626;2023-01-10T17:53:18;97614.38;;;10.64;51.60
60228;BME280;46091;46.512;6.626;2023-01-10T17:55:22;97610.28;;;10.61;51.63
60228;BME280;46091;46.512;6.626;2023-01-10T17:57:25;97607.47;;;10.63;51.25
60228;BME280;46091;46.512;6.626;2023-01-10T17:59:28;97612.75;;;10.63;51.27
60228;BME280;46091;46.512;6.626;2023-01-10T18:01:31;97620.84;;;10.61;51.45
60228;BME280;46091;46.512;6.626;2023-01-10T18:03:34;97611.09;;;10.62;51.83
60228;BME280;46091;46.512;6.626;2023-01-10T18:05:37;97623.00;;;10.66;51.82
60228;BME280;46091;46.512;6.626;2023-01-10T18:07:40;97615.72;;;10.68;51.76
60228;BME280;46091;46.512;6.626;2023-01-10T18:09:43;97606.97;;;10.67;51.78
60228;BME280;46091;46.512;6.626;2023-01-10T18:11:47;97607.78;;;10.68;51.39
60228;BME280;46091;46.512;6.626;2023-01-10T18:13:50;97613.41;;;10.65;51.72
60228;BME280;46091;46.512;6.626;2023-01-10T18:15:52;97605.50;;;10.65;51.69
60228;BME280;46091;46.512;6.626;2023-01-10T18:17:55;97606.31;;;10.65;51.74
60228;BME280;46091;46.512;6.626;2023-01-10T18:19:58;97597.56;;;10.65;52.01
60228;BME280;46091;46.512;6.626;2023-01-10T18:22:01;97606.63;;;10.62;51.82
60228;BME280;46091;46.512;6.626;2023-01-10T18:24:26;97604.81;;;10.63;51.92
60228;BME280;46091;46.512;6.626;2023-01-10T18:26:29;97607.47;;;10.63;51.82
60228;BME280;46091;46.512;6.626;2023-01-10T18:28:36;97610.28;;;10.61;51.93
60228;BME280;46091;46.512;6.626;2023-01-10T18:30:42;97604.63;;;10.64;51.90